Bondville, IL (61815)

12:26 AM CDT on September 24, 2014 (GMT -0500)
Jefferson Middle School | Change Station
CLOSE
Current Station
Personal Weather Station
Location: Champaign, IL
Elevation: 728 ft
Nearby Weather Stations

Elev 728 ft 40.10 °N, 88.28 °W | Updated 3 minutes ago

Clear
Clear
56.9 °F
Feels Like 56.9 °F
N
2.0
Wind Variable Wind from ESE
Gusts 5.0 mph

Today
High -- | Low -- °F
--% Chance of Precip.
Yesterday
High -- | Low -- °F
Precip. -- in
6:43 AM 6:47 PM
Waning Crescent, 0% visible
Pressure 30.31 in
Visibility 10.0 miles
Clouds Clear
Dew Point 51 °F
Humidity 80%
Rainfall 0.00 in
Snow Depth Not available.
UV 0 out of 12
Pollen 4.50 out of 12
Air Quality Not available.
Flu Activity Not available.
METAR KTIP 240510Z AUTO 00000KT 10SM CLR 13/09 A3031 RMK AO2 T01250088

More Conditions Fewer Conditions

Pressure 30.31 in
Visibility 10.0 miles
Clouds Clear
Dew Point 51 °F
Humidity 80%
Rainfall 0.00 in
Snow Depth Not available.
UV 0 out of 12
Pollen 4.50 out of 12
Air Quality Not available.
Flu Activity Not available.
METAR KTIP 240510Z AUTO 00000KT 10SM CLR 13/09 A3031 RMK AO2 T01250088

More Conditions Fewer Conditions

10-Day Weather Forecast

Almanac

Astronomy

Sep. 24, 2014 Rise Set
Actual Time 6:43 AM CDT 6:47 PM CDT
Civil Twilight 6:15 AM CDT 7:14 PM CDT
Nautical Twilight 5:44 AM CDT 7:45 PM CDT
Astronomical Twilight 5:12 AM CDT 8:17 PM CDT
Moon 7:03 AM CDT 6:57 PM CDT
Length of Visible Light 12h 58m
Length of Day
12h 04m
Tomorrow will be 2m 37s shorter.
Waning Crescent, 0% of the Moon is Illuminated
Today
Waning Crescent
Sep 24
New
Oct 1
First Quarter
Oct 8
Full
Oct 15
Last Quarter

Today's Extremes

State Highs State Lows

Community

WunderPhotos

Upload Photos

1,755,891 photos uploaded!

WunderBlogs® & News

Nearby

Snow Depth

Station Depth Elevation
No new snow has been reported.

Earthquake Activity

City Distance Mag. Time & Date
No recent earthquake activity has been reported nearby.
Minimum magnitude displayed is 2.5.

Coastal Water Temperatures

Place Temperature
No Stations Reporting

Nearby Weather Stations